Honolulu, Hawaii
Current Conditions -  °F | °C
As of 5:53 PM on Friday 19 Dec 2014 (Local Time) from PHNL Reporting Station
Scattered Clouds Scattered Clouds  
Wind Chill: 79°   Ceiling: Unl
Heat Index: 81°   Visibility: 10mi
Dew Point: 66°   Wind: 12mph
Humidity: 64%   Direction: 70°ENE
Pressure: 29.99"   Gusts: 22mph
Location:  21.3°N, 157.85°W
Report Text: PHNL 200353Z 07010G19KT 10SM FEW026 SCT037 SCT048 26/19 A2999 RMK AO2 SLP155 T02610189
Loading
Personal Weather Stations






























Interactive Weather Map New forecast layout! Learn more

10-Day Weather Forecast

Advertisements
Track Severe Weather on mobile